sensor_id;sensor_type;location;lat;lon;timestamp;temperature;humidity
21216;DHT22;10765;50.954;5.322;2023-03-01T00:01:02;-0.50;99.90
21216;DHT22;10765;50.954;5.322;2023-03-01T00:03:29;-0.50;99.90
21216;DHT22;10765;50.954;5.322;2023-03-01T00:05:56;-0.40;99.90
21216;DHT22;10765;50.954;5.322;2023-03-01T00:08:24;-0.50;99.90
21216;DHT22;10765;50.954;5.322;2023-03-01T00:11:00;-0.60;99.90
21216;DHT22;10765;50.954;5.322;2023-03-01T00:13:27;-0.70;99.90
21216;DHT22;10765;50.954;5.322;2023-03-01T00:15:54;-0.80;99.90
21216;DHT22;10765;50.954;5.322;2023-03-01T00:18:21;-0.80;99.90
21216;DHT22;10765;50.954;5.322;2023-03-01T00:20:50;-0.70;99.90
21216;DHT22;10765;50.954;5.322;2023-03-01T00:23:17;-0.70;99.90
21216;DHT22;10765;50.954;5.322;2023-03-01T00:25:45;-0.60;99.90
21216;DHT22;10765;50.954;5.322;2023-03-01T00:28:12;-0.70;99.90
21216;DHT22;10765;50.954;5.322;2023-03-01T00:30:39;-0.80;99.90
21216;DHT22;10765;50.954;5.322;2023-03-01T00:33:06;-0.80;99.90
21216;DHT22;10765;50.954;5.322;2023-03-01T00:35:33;-0.80;99.90
21216;DHT22;10765;50.954;5.322;2023-03-01T00:38:01;-0.90;99.90
21216;DHT22;10765;50.954;5.322;2023-03-01T00:40:29;-0.80;99.90
21216;DHT22;10765;50.954;5.322;2023-03-01T00:42:58;-0.80;99.90
21216;DHT22;10765;50.954;5.322;2023-03-01T00:45:26;-0.90;99.90
21216;DHT22;10765;50.954;5.322;2023-03-01T00:47:53;-0.90;99.90
21216;DHT22;10765;50.954;5.322;2023-03-01T00:50:20;-0.90;99.90
21216;DHT22;10765;50.954;5.322;2023-03-01T00:52:51;-1.00;1.00
21216;DHT22;10765;50.954;5.322;2023-03-01T00:55:18;-1.10;1.00
21216;DHT22;10765;50.954;5.322;2023-03-01T00:57:45;-1.10;1.00
21216;DHT22;10765;50.954;5.322;2023-03-01T01:00:14;-1.20;1.00
21216;DHT22;10765;50.954;5.322;2023-03-01T01:02:41;-1.30;1.00
21216;DHT22;10765;50.954;5.322;2023-03-01T01:05:08;-1.30;1.00
21216;DHT22;10765;50.954;5.322;2023-03-01T01:07:35;-1.30;1.00
21216;DHT22;10765;50.954;5.322;2023-03-01T01:10:03;-1.30;1.00
21216;DHT22;10765;50.954;5.322;2023-03-01T01:12:30;-1.40;1.00
21216;DHT22;10765;50.954;5.322;2023-03-01T01:14:57;-1.40;1.00
21216;DHT22;10765;50.954;5.322;2023-03-01T01:17:25;-1.50;1.00
21216;DHT22;10765;50.954;5.322;2023-03-01T01:19:52;-1.50;1.00
21216;DHT22;10765;50.954;5.322;2023-03-01T01:22:19;-1.40;1.00
21216;DHT22;10765;50.954;5.322;2023-03-01T01:24:46;-1.40;1.00
21216;DHT22;10765;50.954;5.322;2023-03-01T01:27:13;-1.40;1.00
21216;DHT22;10765;50.954;5.322;2023-03-01T01:29:39;-1.40;1.00
21216;DHT22;10765;50.954;5.322;2023-03-01T01:32:07;-1.50;1.00
21216;DHT22;10765;50.954;5.322;2023-03-01T01:34:35;-1.50;1.00
21216;DHT22;10765;50.954;5.322;2023-03-01T01:37:02;-1.50;1.00
21216;DHT22;10765;50.954;5.322;2023-03-01T01:39:33;-1.50;1.00
21216;DHT22;10765;50.954;5.322;2023-03-01T01:42:00;-1.50;1.00
21216;DHT22;10765;50.954;5.322;2023-03-01T01:44:28;-1.50;1.00
21216;DHT22;10765;50.954;5.322;2023-03-01T01:46:58;-1.50;1.00
21216;DHT22;10765;50.954;5.322;2023-03-01T01:49:30;-1.50;1.00
21216;DHT22;10765;50.954;5.322;2023-03-01T01:52:07;-1.60;1.00
21216;DHT22;10765;50.954;5.322;2023-03-01T01:54:40;-1.50;1.00
21216;DHT22;10765;50.954;5.322;2023-03-01T01:57:12;-1.50;1.00
21216;DHT22;10765;50.954;5.322;2023-03-01T01:59:43;-1.50;1.00
21216;DHT22;10765;50.954;5.322;2023-03-01T02:02:12;-1.50;99.90
21216;DHT22;10765;50.954;5.322;2023-03-01T02:04:39;-1.50;99.90
21216;DHT22;10765;50.954;5.322;2023-03-01T02:07:13;-1.50;99.90
21216;DHT22;10765;50.954;5.322;2023-03-01T02:09:42;-1.60;99.90
21216;DHT22;10765;50.954;5.322;2023-03-01T02:12:13;-1.60;99.90
21216;DHT22;10765;50.954;5.322;2023-03-01T02:14:40;-1.60;99.90
21216;DHT22;10765;50.954;5.322;2023-03-01T02:17:07;-1.70;99.90
21216;DHT22;10765;50.954;5.322;2023-03-01T02:19:44;-1.70;99.90
21216;DHT22;10765;50.954;5.322;2023-03-01T02:22:20;-1.70;99.90
21216;DHT22;10765;50.954;5.322;2023-03-01T02:24:58;-1.80;99.90
21216;DHT22;10765;50.954;5.322;2023-03-01T02:27:32;-1.80;99.90
21216;DHT22;10765;50.954;5.322;2023-03-01T02:30:04;-1.80;99.90
21216;DHT22;10765;50.954;5.322;2023-03-01T02:32:32;-1.90;99.90
21216;DHT22;10765;50.954;5.322;2023-03-01T02:34:58;-1.90;99.90
21216;DHT22;10765;50.954;5.322;2023-03-01T02:37:26;-1.90;99.90
21216;DHT22;10765;50.954;5.322;2023-03-01T02:39:57;-1.90;99.90
21216;DHT22;10765;50.954;5.322;2023-03-01T02:42:28;-1.90;1.00
21216;DHT22;10765;50.954;5.322;2023-03-01T02:44:57;-1.90;1.00
21216;DHT22;10765;50.954;5.322;2023-03-01T02:47:26;-2.00;1.00
21216;DHT22;10765;50.954;5.322;2023-03-01T02:49:53;-2.00;1.00
21216;DHT22;10765;50.954;5.322;2023-03-01T02:52:33;-2.10;1.00
21216;DHT22;10765;50.954;5.322;2023-03-01T02:55:03;-2.10;1.00
21216;DHT22;10765;50.954;5.322;2023-03-01T02:57:33;-2.10;1.00
21216;DHT22;10765;50.954;5.322;2023-03-01T03:00:05;-2.20;1.00
21216;DHT22;10765;50.954;5.322;2023-03-01T03:02:35;-2.10;1.00
21216;DHT22;10765;50.954;5.322;2023-03-01T03:05:08;-2.10;1.00
21216;DHT22;10765;50.954;5.322;2023-03-01T03:07:37;-2.10;1.00
21216;DHT22;10765;50.954;5.322;2023-03-01T03:10:06;-2.20;1.00
21216;DHT22;10765;50.954;5.322;2023-03-01T03:12:34;-2.20;1.00
21216;DHT22;10765;50.954;5.322;2023-03-01T03:15:00;-2.20;1.00
21216;DHT22;10765;50.954;5.322;2023-03-01T03:17:35;-2.20;1.00
21216;DHT22;10765;50.954;5.322;2023-03-01T03:20:03;-2.20;1.00
21216;DHT22;10765;50.954;5.322;2023-03-01T03:22:30;-2.20;1.00
21216;DHT22;10765;50.954;5.322;2023-03-01T03:24:59;-2.40;1.00
21216;DHT22;10765;50.954;5.322;2023-03-01T03:27:28;-2.50;1.00
21216;DHT22;10765;50.954;5.322;2023-03-01T03:29:57;-2.40;1.00
21216;DHT22;10765;50.954;5.322;2023-03-01T03:32:24;-2.40;1.00
21216;DHT22;10765;50.954;5.322;2023-03-01T03:34:52;-2.40;1.00
21216;DHT22;10765;50.954;5.322;2023-03-01T03:37:19;-2.40;1.00
21216;DHT22;10765;50.954;5.322;2023-03-01T03:40:00;-2.40;1.00
21216;DHT22;10765;50.954;5.322;2023-03-01T03:42:27;-2.40;1.00
21216;DHT22;10765;50.954;5.322;2023-03-01T03:44:54;-2.40;1.00
21216;DHT22;10765;50.954;5.322;2023-03-01T03:47:21;-2.30;1.00
21216;DHT22;10765;50.954;5.322;2023-03-01T03:49:48;-2.30;1.00
21216;DHT22;10765;50.954;5.322;2023-03-01T03:52:16;-2.40;1.00
21216;DHT22;10765;50.954;5.322;2023-03-01T03:54:43;-2.40;27.90
21216;DHT22;10765;50.954;5.322;2023-03-01T03:57:10;-2.40;21.60
21216;DHT22;10765;50.954;5.322;2023-03-01T03:59:37;-2.50;1.00
21216;DHT22;10765;50.954;5.322;2023-03-01T04:02:04;-2.50;22.60
21216;DHT22;10765;50.954;5.322;2023-03-01T04:04:33;-2.40;17.20
21216;DHT22;10765;50.954;5.322;2023-03-01T04:07:00;-2.40;1.00
21216;DHT22;10765;50.954;5.322;2023-03-01T04:09:28;-2.40;1.00
21216;DHT22;10765;50.954;5.322;2023-03-01T04:11:55;-2.40;1.00
21216;DHT22;10765;50.954;5.322;2023-03-01T04:14:22;-2.40;1.00
21216;DHT22;10765;50.954;5.322;2023-03-01T04:16:49;-2.40;1.00
21216;DHT22;10765;50.954;5.322;2023-03-01T04:19:16;-2.50;11.30
21216;DHT22;10765;50.954;5.322;2023-03-01T04:21:43;-2.50;80.40
21216;DHT22;10765;50.954;5.322;2023-03-01T04:24:10;-2.60;52.20
21216;DHT22;10765;50.954;5.322;2023-03-01T04:26:39;-2.60;99.90
21216;DHT22;10765;50.954;5.322;2023-03-01T04:29:06;-2.60;99.90
21216;DHT22;10765;50.954;5.322;2023-03-01T04:31:33;-2.60;99.90
21216;DHT22;10765;50.954;5.322;2023-03-01T04:34:00;-2.60;99.90
21216;DHT22;10765;50.954;5.322;2023-03-01T04:36:28;-2.60;99.90
21216;DHT22;10765;50.954;5.322;2023-03-01T04:38:56;-2.70;99.90
21216;DHT22;10765;50.954;5.322;2023-03-01T04:41:24;-2.70;99.90
21216;DHT22;10765;50.954;5.322;2023-03-01T04:43:52;-2.70;99.90
21216;DHT22;10765;50.954;5.322;2023-03-01T04:46:20;-2.70;99.90
21216;DHT22;10765;50.954;5.322;2023-03-01T04:48:47;-2.70;99.90
21216;DHT22;10765;50.954;5.322;2023-03-01T04:51:15;-2.70;99.90
21216;DHT22;10765;50.954;5.322;2023-03-01T04:53:43;-2.80;99.90
21216;DHT22;10765;50.954;5.322;2023-03-01T04:56:10;-2.80;99.90
21216;DHT22;10765;50.954;5.322;2023-03-01T04:58:39;-2.80;99.90
21216;DHT22;10765;50.954;5.322;2023-03-01T05:01:12;-2.80;99.90
21216;DHT22;10765;50.954;5.322;2023-03-01T05:03:42;-2.90;99.90
21216;DHT22;10765;50.954;5.322;2023-03-01T05:06:09;-2.90;99.90
21216;DHT22;10765;50.954;5.322;2023-03-01T05:08:37;-2.90;99.90
21216;DHT22;10765;50.954;5.322;2023-03-01T05:11:04;-2.80;99.90
21216;DHT22;10765;50.954;5.322;2023-03-01T05:13:34;-2.80;99.90
21216;DHT22;10765;50.954;5.322;2023-03-01T05:16:03;-2.90;99.90
21216;DHT22;10765;50.954;5.322;2023-03-01T05:18:32;-2.90;99.90
21216;DHT22;10765;50.954;5.322;2023-03-01T05:21:03;-2.90;99.90
21216;DHT22;10765;50.954;5.322;2023-03-01T05:23:31;-2.90;99.90
21216;DHT22;10765;50.954;5.322;2023-03-01T05:25:58;-2.90;99.90
21216;DHT22;10765;50.954;5.322;2023-03-01T05:28:25;-2.90;99.90
21216;DHT22;10765;50.954;5.322;2023-03-01T05:30:53;-3.00;99.90
21216;DHT22;10765;50.954;5.322;2023-03-01T05:33:20;-3.00;99.90
21216;DHT22;10765;50.954;5.322;2023-03-01T05:35:49;-2.90;99.90
21216;DHT22;10765;50.954;5.322;2023-03-01T05:38:17;-2.90;99.90
21216;DHT22;10765;50.954;5.322;2023-03-01T05:40:46;-2.90;99.90
21216;DHT22;10765;50.954;5.322;2023-03-01T05:43:15;-2.90;99.90
21216;DHT22;10765;50.954;5.322;2023-03-01T05:45:43;-2.90;99.90
21216;DHT22;10765;50.954;5.322;2023-03-01T05:48:11;-3.00;99.90
21216;DHT22;10765;50.954;5.322;2023-03-01T05:50:40;-3.00;99.90
21216;DHT22;10765;50.954;5.322;2023-03-01T05:53:11;-3.00;99.90
21216;DHT22;10765;50.954;5.322;2023-03-01T05:55:39;-3.10;99.90
21216;DHT22;10765;50.954;5.322;2023-03-01T05:58:07;-3.10;99.90
21216;DHT22;10765;50.954;5.322;2023-03-01T06:00:36;-3.10;99.90
21216;DHT22;10765;50.954;5.322;2023-03-01T06:03:03;-3.20;99.90
21216;DHT22;10765;50.954;5.322;2023-03-01T06:05:30;-3.10;99.90
21216;DHT22;10765;50.954;5.322;2023-03-01T06:07:59;-3.10;99.90
21216;DHT22;10765;50.954;5.322;2023-03-01T06:10:27;-3.00;74.80
21216;DHT22;10765;50.954;5.322;2023-03-01T06:12:54;-2.90;8.00
21216;DHT22;10765;50.954;5.322;2023-03-01T06:15:22;-2.90;62.60
21216;DHT22;10765;50.954;5.322;2023-03-01T06:17:50;-2.90;1.00
21216;DHT22;10765;50.954;5.322;2023-03-01T06:20:19;-3.00;1.00
21216;DHT22;10765;50.954;5.322;2023-03-01T06:22:47;-3.00;1.00
21216;DHT22;10765;50.954;5.322;2023-03-01T06:25:16;-3.00;1.00
21216;DHT22;10765;50.954;5.322;2023-03-01T06:27:45;-3.00;1.00
21216;DHT22;10765;50.954;5.322;2023-03-01T06:30:15;-3.00;1.00
21216;DHT22;10765;50.954;5.322;2023-03-01T06:32:43;-3.00;6.90
21216;DHT22;10765;50.954;5.322;2023-03-01T06:35:10;-3.00;8.10
21216;DHT22;10765;50.954;5.322;2023-03-01T06:37:37;-3.00;98.40
21216;DHT22;10765;50.954;5.322;2023-03-01T06:40:05;-2.80;99.90
21216;DHT22;10765;50.954;5.322;2023-03-01T06:42:34;-2.70;5.70
21216;DHT22;10765;50.954;5.322;2023-03-01T06:45:02;-2.60;68.90
21216;DHT22;10765;50.954;5.322;2023-03-01T06:47:30;-2.40;1.00
21216;DHT22;10765;50.954;5.322;2023-03-01T06:49:57;-2.30;1.00
21216;DHT22;10765;50.954;5.322;2023-03-01T06:52:24;-1.90;1.00
21216;DHT22;10765;50.954;5.322;2023-03-01T06:54:50;-1.40;1.00
21216;DHT22;10765;50.954;5.322;2023-03-01T06:57:17;-0.70;1.00
21216;DHT22;10765;50.954;5.322;2023-03-01T06:59:44;-0.30;99.90
21216;DHT22;10765;50.954;5.322;2023-03-01T07:02:14;0.00;99.90
21216;DHT22;10765;50.954;5.322;2023-03-01T07:04:42;0.70;99.90
21216;DHT22;10765;50.954;5.322;2023-03-01T07:07:09;1.20;99.90
21216;DHT22;10765;50.954;5.322;2023-03-01T07:09:36;1.60;99.90
21216;DHT22;10765;50.954;5.322;2023-03-01T07:12:03;2.10;99.90
21216;DHT22;10765;50.954;5.322;2023-03-01T07:14:30;2.60;99.90
21216;DHT22;10765;50.954;5.322;2023-03-01T07:16:57;2.70;99.90
21216;DHT22;10765;50.954;5.322;2023-03-01T07:19:26;2.70;99.90
21216;DHT22;10765;50.954;5.322;2023-03-01T07:21:53;2.80;99.90
21216;DHT22;10765;50.954;5.322;2023-03-01T07:24:21;3.00;99.90
21216;DHT22;10765;50.954;5.322;2023-03-01T07:26:49;3.30;99.90
21216;DHT22;10765;50.954;5.322;2023-03-01T07:29:16;3.70;99.90
21216;DHT22;10765;50.954;5.322;2023-03-01T07:31:43;4.30;99.90
21216;DHT22;10765;50.954;5.322;2023-03-01T07:34:10;4.90;99.90
21216;DHT22;10765;50.954;5.322;2023-03-01T07:36:39;4.90;99.90
21216;DHT22;10765;50.954;5.322;2023-03-01T07:39:09;5.50;99.90
21216;DHT22;10765;50.954;5.322;2023-03-01T07:41:36;6.30;75.30
21216;DHT22;10765;50.954;5.322;2023-03-01T07:44:03;6.40;59.60
21216;DHT22;10765;50.954;5.322;2023-03-01T07:46:30;6.80;45.00
21216;DHT22;10765;50.954;5.322;2023-03-01T07:48:57;6.90;38.60
21216;DHT22;10765;50.954;5.322;2023-03-01T07:51:24;7.60;22.40
21216;DHT22;10765;50.954;5.322;2023-03-01T07:53:52;7.90;13.40
21216;DHT22;10765;50.954;5.322;2023-03-01T07:56:19;8.20;5.10
21216;DHT22;10765;50.954;5.322;2023-03-01T07:58:47;8.90;1.00
21216;DHT22;10765;50.954;5.322;2023-03-01T08:01:16;8.80;5.60
21216;DHT22;10765;50.954;5.322;2023-03-01T08:03:43;9.00;1.00
21216;DHT22;10765;50.954;5.322;2023-03-01T08:06:11;9.40;1.00
21216;DHT22;10765;50.954;5.322;2023-03-01T08:08:39;9.70;1.00
21216;DHT22;10765;50.954;5.322;2023-03-01T08:11:10;10.20;1.00
21216;DHT22;10765;50.954;5.322;2023-03-01T08:13:37;10.70;1.00
21216;DHT22;10765;50.954;5.322;2023-03-01T08:16:06;10.30;1.00
21216;DHT22;10765;50.954;5.322;2023-03-01T08:18:34;9.90;1.00
21216;DHT22;10765;50.954;5.322;2023-03-01T08:21:02;10.10;1.00
21216;DHT22;10765;50.954;5.322;2023-03-01T08:23:29;9.60;1.00
21216;DHT22;10765;50.954;5.322;2023-03-01T08:26:04;10.30;1.00
21216;DHT22;10765;50.954;5.322;2023-03-01T08:28:33;11.10;1.00
21216;DHT22;10765;50.954;5.322;2023-03-01T08:31:00;11.40;1.00
21216;DHT22;10765;50.954;5.322;2023-03-01T08:33:27;11.40;1.00
21216;DHT22;10765;50.954;5.322;2023-03-01T08:36:02;11.60;1.00
21216;DHT22;10765;50.954;5.322;2023-03-01T08:38:29;12.60;1.00
21216;DHT22;10765;50.954;5.322;2023-03-01T08:40:59;13.00;1.00
21216;DHT22;10765;50.954;5.322;2023-03-01T08:43:26;13.20;1.00
21216;DHT22;10765;50.954;5.322;2023-03-01T08:45:55;13.70;1.00
21216;DHT22;10765;50.954;5.322;2023-03-01T08:48:21;13.50;1.00
21216;DHT22;10765;50.954;5.322;2023-03-01T08:50:48;14.30;1.00
21216;DHT22;10765;50.954;5.322;2023-03-01T08:53:15;13.80;1.00
21216;DHT22;10765;50.954;5.322;2023-03-01T08:55:42;14.50;1.00
21216;DHT22;10765;50.954;5.322;2023-03-01T08:58:09;14.50;1.00
21216;DHT22;10765;50.954;5.322;2023-03-01T09:00:36;15.60;1.00
21216;DHT22;10765;50.954;5.322;2023-03-01T09:03:04;15.00;1.00
21216;DHT22;10765;50.954;5.322;2023-03-01T09:05:31;14.70;1.00
21216;DHT22;10765;50.954;5.322;2023-03-01T09:07:58;15.70;1.00
21216;DHT22;10765;50.954;5.322;2023-03-01T09:10:25;14.90;1.00
21216;DHT22;10765;50.954;5.322;2023-03-01T09:12:52;14.40;1.00
21216;DHT22;10765;50.954;5.322;2023-03-01T09:15:19;15.20;1.00
21216;DHT22;10765;50.954;5.322;2023-03-01T09:17:46;16.00;1.00
21216;DHT22;10765;50.954;5.322;2023-03-01T09:20:15;15.70;1.00
21216;DHT22;10765;50.954;5.322;2023-03-01T09:22:42;15.80;1.00
21216;DHT22;10765;50.954;5.322;2023-03-01T09:25:09;16.70;1.00
21216;DHT22;10765;50.954;5.322;2023-03-01T09:27:36;15.80;1.00
21216;DHT22;10765;50.954;5.322;2023-03-01T09:30:04;15.80;1.00
21216;DHT22;10765;50.954;5.322;2023-03-01T09:32:31;15.90;1.00
21216;DHT22;10765;50.954;5.322;2023-03-01T09:34:58;15.30;1.00
21216;DHT22;10765;50.954;5.322;2023-03-01T09:37:32;14.90;1.00
21216;DHT22;10765;50.954;5.322;2023-03-01T09:39:59;15.90;1.00
21216;DHT22;10765;50.954;5.322;2023-03-01T09:42:26;15.60;1.00
21216;DHT22;10765;50.954;5.322;2023-03-01T09:44:58;16.10;1.00
21216;DHT22;10765;50.954;5.322;2023-03-01T09:47:29;16.10;1.00
21216;DHT22;10765;50.954;5.322;2023-03-01T09:50:02;16.70;1.00
21216;DHT22;10765;50.954;5.322;2023-03-01T09:52:36;17.40;1.00
21216;DHT22;10765;50.954;5.322;2023-03-01T09:55:10;18.30;1.00
21216;DHT22;10765;50.954;5.322;2023-03-01T09:57:43;17.90;1.00
21216;DHT22;10765;50.954;5.322;2023-03-01T10:00:18;18.00;1.00
21216;DHT22;10765;50.954;5.322;2023-03-01T10:02:49;18.30;1.00
21216;DHT22;10765;50.954;5.322;2023-03-01T10:05:41;17.80;1.00
21216;DHT22;10765;50.954;5.322;2023-03-01T10:08:36;17.90;1.00
21216;DHT22;10765;50.954;5.322;2023-03-01T10:11:20;18.90;1.00
21216;DHT22;10765;50.954;5.322;2023-03-01T10:13:54;18.80;1.00
21216;DHT22;10765;50.954;5.322;2023-03-01T10:16:26;17.50;1.00
21216;DHT22;10765;50.954;5.322;2023-03-01T10:18:59;17.40;1.00
21216;DHT22;10765;50.954;5.322;2023-03-01T10:21:27;18.60;1.00
21216;DHT22;10765;50.954;5.322;2023-03-01T10:24:04;18.90;1.00
21216;DHT22;10765;50.954;5.322;2023-03-01T10:26:44;18.90;1.00
21216;DHT22;10765;50.954;5.322;2023-03-01T10:29:14;18.60;1.00
21216;DHT22;10765;50.954;5.322;2023-03-01T10:31:43;17.70;1.00
21216;DHT22;10765;50.954;5.322;2023-03-01T10:34:14;16.60;1.00
21216;DHT22;10765;50.954;5.322;2023-03-01T10:36:43;17.40;1.00
21216;DHT22;10765;50.954;5.322;2023-03-01T10:39:17;17.10;1.00
21216;DHT22;10765;50.954;5.322;2023-03-01T10:42:05;16.70;1.00
21216;DHT22;10765;50.954;5.322;2023-03-01T10:44:39;17.20;1.00
21216;DHT22;10765;50.954;5.322;2023-03-01T10:47:17;16.20;1.00
21216;DHT22;10765;50.954;5.322;2023-03-01T10:50:09;18.00;1.00
21216;DHT22;10765;50.954;5.322;2023-03-01T10:52:56;19.00;1.00
21216;DHT22;10765;50.954;5.322;2023-03-01T10:55:30;20.70;1.00
21216;DHT22;10765;50.954;5.322;2023-03-01T10:58:11;19.70;1.00
21216;DHT22;10765;50.954;5.322;2023-03-01T11:00:48;20.90;1.00
21216;DHT22;10765;50.954;5.322;2023-03-01T11:03:18;21.20;1.00
21216;DHT22;10765;50.954;5.322;2023-03-01T11:05:59;19.80;1.00
21216;DHT22;10765;50.954;5.322;2023-03-01T11:08:36;18.40;1.00
21216;DHT22;10765;50.954;5.322;2023-03-01T11:11:22;18.40;1.00
21216;DHT22;10765;50.954;5.322;2023-03-01T11:13:54;18.40;1.00
21216;DHT22;10765;50.954;5.322;2023-03-01T11:16:29;17.30;1.00
21216;DHT22;10765;50.954;5.322;2023-03-01T11:18:59;18.80;1.00
21216;DHT22;10765;50.954;5.322;2023-03-01T11:21:30;18.90;1.00
21216;DHT22;10765;50.954;5.322;2023-03-01T11:24:00;20.00;1.00
21216;DHT22;10765;50.954;5.322;2023-03-01T11:26:31;19.80;1.00
21216;DHT22;10765;50.954;5.322;2023-03-01T11:29:05;19.90;1.00
21216;DHT22;10765;50.954;5.322;2023-03-01T11:31:33;21.80;1.00
21216;DHT22;10765;50.954;5.322;2023-03-01T11:34:07;20.80;1.00
21216;DHT22;10765;50.954;5.322;2023-03-01T11:36:42;19.80;1.00
21216;DHT22;10765;50.954;5.322;2023-03-01T11:39:19;19.40;1.00
21216;DHT22;10765;50.954;5.322;2023-03-01T11:41:52;17.80;1.00
21216;DHT22;10765;50.954;5.322;2023-03-01T11:44:26;16.60;1.00
21216;DHT22;10765;50.954;5.322;2023-03-01T11:47:07;16.80;1.00
21216;DHT22;10765;50.954;5.322;2023-03-01T11:50:07;16.20;1.00
21216;DHT22;10765;50.954;5.322;2023-03-01T11:52:48;16.10;1.00
21216;DHT22;10765;50.954;5.322;2023-03-01T11:55:45;15.80;1.00
21216;DHT22;10765;50.954;5.322;2023-03-01T11:58:38;15.00;1.00
21216;DHT22;10765;50.954;5.322;2023-03-01T12:01:21;16.20;1.00
21216;DHT22;10765;50.954;5.322;2023-03-01T12:04:23;16.30;1.00
21216;DHT22;10765;50.954;5.322;2023-03-01T12:06:57;15.30;1.00
21216;DHT22;10765;50.954;5.322;2023-03-01T12:09:35;13.50;1.00
21216;DHT22;10765;50.954;5.322;2023-03-01T12:12:17;12.90;1.00
21216;DHT22;10765;50.954;5.322;2023-03-01T12:14:59;13.70;1.00
21216;DHT22;10765;50.954;5.322;2023-03-01T12:17:52;13.40;1.00
21216;DHT22;10765;50.954;5.322;2023-03-01T12:20:30;12.30;1.00
21216;DHT22;10765;50.954;5.322;2023-03-01T12:23:25;12.40;1.00
21216;DHT22;10765;50.954;5.322;2023-03-01T12:26:00;13.50;1.00
21216;DHT22;10765;50.954;5.322;2023-03-01T12:28:38;13.70;1.00
21216;DHT22;10765;50.954;5.322;2023-03-01T12:34:26;15.60;1.00
21216;DHT22;10765;50.954;5.322;2023-03-01T12:37:20;15.60;1.00
21216;DHT22;10765;50.954;5.322;2023-03-01T12:39:58;13.70;1.00
21216;DHT22;10765;50.954;5.322;2023-03-01T12:42:37;12.00;1.00
21216;DHT22;10765;50.954;5.322;2023-03-01T12:45:27;10.50;9.80
21216;DHT22;10765;50.954;5.322;2023-03-01T12:48:15;10.30;23.30
21216;DHT22;10765;50.954;5.322;2023-03-01T12:50:51;11.10;15.10
21216;DHT22;10765;50.954;5.322;2023-03-01T12:53:22;11.00;12.70
21216;DHT22;10765;50.954;5.322;2023-03-01T12:55:50;14.00;1.00
21216;DHT22;10765;50.954;5.322;2023-03-01T12:58:25;15.90;1.00
21216;DHT22;10765;50.954;5.322;2023-03-01T13:01:07;17.20;1.00
21216;DHT22;10765;50.954;5.322;2023-03-01T13:03:50;19.50;1.00
21216;DHT22;10765;50.954;5.322;2023-03-01T13:06:27;20.40;1.00
21216;DHT22;10765;50.954;5.322;2023-03-01T13:09:01;21.00;1.00
21216;DHT22;10765;50.954;5.322;2023-03-01T13:11:32;20.80;1.00
21216;DHT22;10765;50.954;5.322;2023-03-01T13:17:00;20.80;1.00
21216;DHT22;10765;50.954;5.322;2023-03-01T13:19:28;20.20;1.00
21216;DHT22;10765;50.954;5.322;2023-03-01T13:21:59;18.40;1.00
21216;DHT22;10765;50.954;5.322;2023-03-01T13:24:28;19.60;1.00
21216;DHT22;10765;50.954;5.322;2023-03-01T13:27:22;18.60;1.00
21216;DHT22;10765;50.954;5.322;2023-03-01T13:29:56;18.80;1.00
21216;DHT22;10765;50.954;5.322;2023-03-01T13:32:26;19.40;1.00
21216;DHT22;10765;50.954;5.322;2023-03-01T13:34:59;19.00;1.00
21216;DHT22;10765;50.954;5.322;2023-03-01T13:37:35;19.80;1.00
21216;DHT22;10765;50.954;5.322;2023-03-01T13:43:29;19.10;1.00
21216;DHT22;10765;50.954;5.322;2023-03-01T13:45:57;17.50;1.00
21216;DHT22;10765;50.954;5.322;2023-03-01T13:48:27;17.90;1.00
21216;DHT22;10765;50.954;5.322;2023-03-01T13:50:57;18.20;1.00
21216;DHT22;10765;50.954;5.322;2023-03-01T13:53:30;19.20;1.00
21216;DHT22;10765;50.954;5.322;2023-03-01T13:56:01;19.30;1.00
21216;DHT22;10765;50.954;5.322;2023-03-01T13:58:30;19.50;1.00
21216;DHT22;10765;50.954;5.322;2023-03-01T14:00:59;19.90;1.00
21216;DHT22;10765;50.954;5.322;2023-03-01T14:03:28;17.60;1.00
21216;DHT22;10765;50.954;5.322;2023-03-01T14:06:03;16.40;1.00
21216;DHT22;10765;50.954;5.322;2023-03-01T14:08:35;15.90;1.00
21216;DHT22;10765;50.954;5.322;2023-03-01T14:11:20;16.70;1.00
21216;DHT22;10765;50.954;5.322;2023-03-01T14:13:58;16.50;1.00
21216;DHT22;10765;50.954;5.322;2023-03-01T14:16:35;17.50;1.00
21216;DHT22;10765;50.954;5.322;2023-03-01T14:19:14;18.40;1.00
21216;DHT22;10765;50.954;5.322;2023-03-01T14:21:43;19.30;1.00
21216;DHT22;10765;50.954;5.322;2023-03-01T14:24:17;19.20;1.00
21216;DHT22;10765;50.954;5.322;2023-03-01T14:26:45;19.50;1.00
21216;DHT22;10765;50.954;5.322;2023-03-01T14:29:27;19.10;1.00
21216;DHT22;10765;50.954;5.322;2023-03-01T14:31:54;18.00;1.00
21216;DHT22;10765;50.954;5.322;2023-03-01T14:34:23;17.20;1.00
21216;DHT22;10765;50.954;5.322;2023-03-01T14:36:50;15.40;1.00
21216;DHT22;10765;50.954;5.322;2023-03-01T14:39:24;15.20;1.00
21216;DHT22;10765;50.954;5.322;2023-03-01T14:41:52;14.50;1.00
21216;DHT22;10765;50.954;5.322;2023-03-01T14:44:22;15.50;1.00
21216;DHT22;10765;50.954;5.322;2023-03-01T14:46:53;15.40;1.00
21216;DHT22;10765;50.954;5.322;2023-03-01T14:49:22;14.70;1.00
21216;DHT22;10765;50.954;5.322;2023-03-01T14:51:53;17.00;1.00
21216;DHT22;10765;50.954;5.322;2023-03-01T14:54:25;13.40;1.00
21216;DHT22;10765;50.954;5.322;2023-03-01T14:56:53;9.40;82.90
21216;DHT22;10765;50.954;5.322;2023-03-01T14:59:24;8.20;99.90
21216;DHT22;10765;50.954;5.322;2023-03-01T15:01:54;7.80;99.90
21216;DHT22;10765;50.954;5.322;2023-03-01T15:04:22;7.60;99.90
21216;DHT22;10765;50.954;5.322;2023-03-01T15:06:51;7.60;99.90
21216;DHT22;10765;50.954;5.322;2023-03-01T15:09:19;7.70;99.90
21216;DHT22;10765;50.954;5.322;2023-03-01T15:11:48;7.60;99.90
21216;DHT22;10765;50.954;5.322;2023-03-01T15:14:29;7.50;99.90
21216;DHT22;10765;50.954;5.322;2023-03-01T15:17:05;7.40;99.90
21216;DHT22;10765;50.954;5.322;2023-03-01T15:19:32;7.30;99.90
21216;DHT22;10765;50.954;5.322;2023-03-01T15:21:58;7.10;99.90
21216;DHT22;10765;50.954;5.322;2023-03-01T15:24:37;7.30;99.90
21216;DHT22;10765;50.954;5.322;2023-03-01T15:27:14;7.30;99.90
21216;DHT22;10765;50.954;5.322;2023-03-01T15:29:48;7.00;99.90
21216;DHT22;10765;50.954;5.322;2023-03-01T15:32:26;7.00;99.90
21216;DHT22;10765;50.954;5.322;2023-03-01T15:34:54;7.00;99.90
21216;DHT22;10765;50.954;5.322;2023-03-01T15:37:44;7.00;99.90
21216;DHT22;10765;50.954;5.322;2023-03-01T15:40:21;6.90;99.90
21216;DHT22;10765;50.954;5.322;2023-03-01T15:42:51;6.90;99.90
21216;DHT22;10765;50.954;5.322;2023-03-01T15:45:24;6.80;99.90
21216;DHT22;10765;50.954;5.322;2023-03-01T15:47:54;6.80;99.90
21216;DHT22;10765;50.954;5.322;2023-03-01T15:50:25;6.80;99.90
21216;DHT22;10765;50.954;5.322;2023-03-01T15:52:53;6.80;99.90
21216;DHT22;10765;50.954;5.322;2023-03-01T15:55:22;6.60;99.90
21216;DHT22;10765;50.954;5.322;2023-03-01T15:57:58;6.60;99.90
21216;DHT22;10765;50.954;5.322;2023-03-01T16:00:27;6.60;99.90
21216;DHT22;10765;50.954;5.322;2023-03-01T16:02:54;6.50;99.90
21216;DHT22;10765;50.954;5.322;2023-03-01T16:05:24;6.50;99.90
21216;DHT22;10765;50.954;5.322;2023-03-01T16:07:51;6.50;99.90
21216;DHT22;10765;50.954;5.322;2023-03-01T16:10:18;6.50;99.90
21216;DHT22;10765;50.954;5.322;2023-03-01T16:12:46;6.50;99.90
21216;DHT22;10765;50.954;5.322;2023-03-01T16:15:18;6.50;99.90